Terminal Aerodrome Forecast
Issued by NWS Albany, NY

Home | Current Version | Previous Version | Text Only | Print | Product List | Glossary On
Versions: 1 2 3 4 5 6 7 8 9 10 11 12 13 14 15 16 17 18 19 20 21 22
000
FTUS41 KALY 071841 AAA
TAFALB
TAF AMD
KALB 071841Z 0719/0818 17010KT P6SM VCSH SCT025 BKN060
      TEMPO 0719/0722 VRB10G20KT 2SM +SHRA BR BKN025 OVC040
     FM080000 17007KT P6SM SCT060
     FM080700 19006KT 6SM BR VCSH SCT030 BKN050
     FM081200 26008KT P6SM VCSH BKN025 OVC040
     FM081500 34010KT P6SM SCT025 BKN040=

USA.gov is the U.S. government's official web portal to all federal, state and local government web resources and services.